Main page
METAR-TAF:

METAR-TAF

Airports :

Baraboo–Wisconsin Dells Airport

Baraboo / Wisconsin Dells, Wisconsin, United States

latitude: 43-31-19N, longitude: 089-46-15W, elevation: 977 ft

Current weather observation

The report was made 15 minutes ago, at 21:15 UTC
Wind 18 mph from the South with gusts up to 22 mph
Temperature 52°F
Humidity 32%
Pressure 29.97 in. Hg
Visibility: 10 miles
Clear sky

METAR: KDLL 012115Z AUTO 18016G19KT 10SM CLR 11/M05 A2997 RMK AO2 T01051050

Time: 15:30 (21:30 UTC)


TAF: missing

Weather observations and forecasts of more than 4000 airports (METAR and TAF reports).

The available stations are represented by yellow and red dots on the map.

Hover mouse over dot to see the name of the station.

Then click to see weather observations and forecasts.

To change the map : click on the green buttons with a black cross to zoom in, on the green button with a dash to zoom out, or on the green arrows for adjacent maps.


METAR-TAF: